Time;durP1;ratioP1;P1;durP2;ratioP2;P2;SDS_P1;SDS_P2;PMS_P1;PMS_P2;Temp;Humidity;BMP_temperature;BMP_pressure;BME280_temperature;BME280_humidity;BME280_pressure;Samples;Min_cycle;Max_cycle;Signal;HPM_P1;HPM_P2
2021/04/23 00:00:45;;;;;;;7.88;6.10;;;;;;;;;;5073211;28;20059;-76
2021/04/23 00:03:14;;;;;;;7.75;5.80;;;;;;;;;;5073145;28;20472;-77
2021/04/23 00:05:40;;;;;;;7.28;6.18;;;;;;;;;;5073524;28;20036;-76
2021/04/23 00:08:06;;;;;;;6.25;5.60;;;;;;;;;;5073190;28;20066;-76
2021/04/23 00:10:32;;;;;;;6.95;5.70;;;;;;;;;;5073181;28;20051;-76
2021/04/23 00:12:59;;;;;;;6.68;6.07;;;;;;;;;;5073243;28;20045;-76
2021/04/23 00:15:25;;;;;;;6.13;5.20;;;;;;;;;;5073044;28;20020;-76
2021/04/23 00:17:51;;;;;;;6.70;5.60;;;;;;;;;;5073226;28;20060;-76
2021/04/23 00:20:21;;;;;;;6.05;5.40;;;;;;;;;;5072844;28;20074;-76
2021/04/23 00:22:47;;;;;;;5.60;5.10;;;;;;;;;;5073211;28;20033;-76
2021/04/23 00:25:14;;;;;;;6.65;5.95;;;;;;;;;;5072654;28;20387;-77
2021/04/23 00:27:43;;;;;;;6.40;5.70;;;;;;;;;;5073076;28;20044;-76
2021/04/23 00:30:10;;;;;;;6.68;6.07;;;;;;;;;;5072579;28;20111;-76
2021/04/23 00:32:36;;;;;;;7.22;6.22;;;;;;;;;;5072742;28;20085;-76
2021/04/23 00:35:02;;;;;;;9.68;6.95;;;;;;;;;;5072772;28;20082;-76
2021/04/23 00:37:28;;;;;;;7.15;6.45;;;;;;;;;;5072798;28;20034;-76
2021/04/23 00:39:54;;;;;;;6.45;5.78;;;;;;;;;;5072922;28;20056;-76
2021/04/23 00:42:20;;;;;;;7.35;6.50;;;;;;;;;;5072429;28;20033;-76
2021/04/23 00:44:46;;;;;;;7.82;6.18;;;;;;;;;;5072854;28;20028;-76
2021/04/23 00:47:13;;;;;;;7.85;6.47;;;;;;;;;;5072410;28;20103;-77
2021/04/23 00:49:39;;;;;;;6.88;6.10;;;;;;;;;;5072758;28;20035;-76
2021/04/23 00:52:05;;;;;;;6.53;5.65;;;;;;;;;;5072381;28;20029;-77
2021/04/23 00:54:32;;;;;;;7.47;6.15;;;;;;;;;;5072345;28;20064;-76
2021/04/23 00:56:58;;;;;;;6.65;5.25;;;;;;;;;;5072454;28;20434;-76
2021/04/23 00:59:24;;;;;;;7.38;5.93;;;;;;;;;;5072084;28;20031;-76
2021/04/23 01:01:57;;;;;;;8.75;6.35;;;;;;;;;;5072521;28;20111;-75
2021/04/23 01:04:27;;;;;;;7.20;5.78;;;;;;;;;;5072120;28;20066;-76
2021/04/23 01:07:02;;;;;;;6.68;5.60;;;;;;;;;;5072433;28;20039;-77
2021/04/23 01:09:30;;;;;;;6.70;5.95;;;;;;;;;;5072468;28;20111;-76
2021/04/23 01:11:57;;;;;;;7.57;6.38;;;;;;;;;;5071239;28;20132;-77
2021/04/23 01:14:24;;;;;;;6.95;5.30;;;;;;;;;;5072012;28;20021;-77
2021/04/23 01:16:50;;;;;;;7.07;6.38;;;;;;;;;;5072417;28;20036;-76
2021/04/23 01:19:22;;;;;;;7.18;6.45;;;;;;;;;;5071818;28;20468;-77
2021/04/23 01:21:49;;;;;;;8.25;6.40;;;;;;;;;;5072204;28;20020;-76
2021/04/23 01:24:18;;;;;;;6.32;5.72;;;;;;;;;;5071946;28;20029;-76
2021/04/23 01:26:45;;;;;;;6.20;5.60;;;;;;;;;;5072068;28;20111;-76
2021/04/23 01:29:12;;;;;;;6.40;5.50;;;;;;;;;;5071732;28;20024;-76
2021/04/23 01:31:40;;;;;;;5.93;5.30;;;;;;;;;;5071964;28;20020;-76
2021/04/23 01:34:09;;;;;;;6.82;5.47;;;;;;;;;;5071661;28;20487;-76
2021/04/23 01:36:36;;;;;;;7.25;6.22;;;;;;;;;;5071941;28;20028;-76
2021/04/23 01:39:02;;;;;;;7.30;6.32;;;;;;;;;;5071756;28;20099;-77
2021/04/23 01:41:29;;;;;;;6.18;5.68;;;;;;;;;;5071957;28;20043;-76
2021/04/23 01:43:55;;;;;;;7.07;6.00;;;;;;;;;;5071849;28;20021;-76
2021/04/23 01:46:21;;;;;;;6.43;5.82;;;;;;;;;;5071932;28;20052;-76
2021/04/23 01:48:47;;;;;;;7.28;5.80;;;;;;;;;;5071967;28;20103;-76
2021/04/23 01:51:14;;;;;;;8.07;6.15;;;;;;;;;;5053692;28;20031;-76
2021/04/23 01:53:41;;;;;;;6.93;6.10;;;;;;;;;;5071762;28;20037;-76
2021/04/23 01:56:08;;;;;;;5.72;5.18;;;;;;;;;;5071505;28;20494;-76
2021/04/23 01:58:35;;;;;;;7.10;6.40;;;;;;;;;;5071827;28;20544;-76
2021/04/23 02:01:01;;;;;;;6.43;5.82;;;;;;;;;;5071868;28;20032;-76
2021/04/23 02:03:27;;;;;;;7.63;6.70;;;;;;;;;;5071788;28;20024;-76
2021/04/23 02:05:55;;;;;;;7.40;6.30;;;;;;;;;;5053796;28;20067;-76
2021/04/23 02:08:22;;;;;;;7.00;6.13;;;;;;;;;;5071414;28;20417;-76
2021/04/23 02:10:51;;;;;;;8.02;6.70;;;;;;;;;;5071542;28;20056;-76
2021/04/23 02:13:22;;;;;;;7.22;6.50;;;;;;;;;;5071306;28;20430;-76
2021/04/23 02:15:48;;;;;;;8.35;7.32;;;;;;;;;;5071673;28;20029;-76
2021/04/23 02:18:14;;;;;;;7.45;6.75;;;;;;;;;;5071437;28;20020;-76
2021/04/23 02:20:41;;;;;;;8.13;7.00;;;;;;;;;;5071369;28;20479;-76
2021/04/23 02:23:08;;;;;;;8.98;8.07;;;;;;;;;;5071435;28;20021;-78
2021/04/23 02:25:36;;;;;;;7.93;7.13;;;;;;;;;;5075361;28;20028;-76
2021/04/23 02:28:03;;;;;;;8.27;7.38;;;;;;;;;;5075054;28;20032;-76
2021/04/23 02:30:31;;;;;;;7.95;6.82;;;;;;;;;;5075159;28;20033;-76
2021/04/23 02:32:57;;;;;;;8.95;8.05;;;;;;;;;;5075023;28;20361;-76
2021/04/23 02:35:24;;;;;;;10.38;9.27;;;;;;;;;;5057060;28;20050;-75
2021/04/23 02:37:50;;;;;;;8.20;7.25;;;;;;;;;;5075048;28;20025;-76
2021/04/23 02:40:20;;;;;;;9.48;8.57;;;;;;;;;;5074768;28;20036;-76
2021/04/23 02:42:48;;;;;;;9.32;8.43;;;;;;;;;;5074997;28;20036;-75
2021/04/23 02:45:16;;;;;;;9.00;8.07;;;;;;;;;;5074899;28;20024;-76
2021/04/23 02:47:43;;;;;;;9.02;8.10;;;;;;;;;;5074945;28;20162;-75
2021/04/23 02:50:10;;;;;;;10.63;9.55;;;;;;;;;;5074580;28;20020;-76
2021/04/23 02:52:36;;;;;;;9.85;8.95;;;;;;;;;;5074703;28;20044;-76
2021/04/23 02:55:03;;;;;;;10.52;9.43;;;;;;;;;;5074626;28;20020;-76
2021/04/23 02:57:29;;;;;;;10.65;9.55;;;;;;;;;;5074756;28;20024;-75
2021/04/23 02:59:56;;;;;;;10.40;9.30;;;;;;;;;;5074539;28;20538;-76
2021/04/23 03:02:22;;;;;;;10.57;9.52;;;;;;;;;;5074779;28;20020;-76
2021/04/23 03:04:48;;;;;;;11.43;10.32;;;;;;;;;;5074591;28;20025;-76
2021/04/23 03:07:14;;;;;;;10.70;9.70;;;;;;;;;;5074440;28;20491;-76
2021/04/23 03:09:40;;;;;;;13.02;10.52;;;;;;;;;;5074339;28;20460;-75
2021/04/23 03:12:06;;;;;;;11.20;9.95;;;;;;;;;;5073988;28;20066;-75
2021/04/23 03:14:33;;;;;;;13.70;11.27;;;;;;;;;;5074424;28;20483;-76
2021/04/23 03:16:59;;;;;;;13.32;11.25;;;;;;;;;;5074248;28;20108;-76
2021/04/23 03:19:25;;;;;;;12.90;11.55;;;;;;;;;;5074207;28;20035;-76
2021/04/23 03:21:52;;;;;;;14.02;12.63;;;;;;;;;;5074445;28;20029;-76
2021/04/23 03:24:18;;;;;;;14.40;12.93;;;;;;;;;;5074149;28;20032;-76
2021/04/23 03:26:45;;;;;;;12.70;11.40;;;;;;;;;;5074486;28;20031;-76
2021/04/23 03:29:12;;;;;;;13.35;11.60;;;;;;;;;;5074018;28;20028;-75
2021/04/23 03:31:38;;;;;;;13.30;11.90;;;;;;;;;;5073874;28;20037;-75
2021/04/23 03:34:05;;;;;;;12.88;11.57;;;;;;;;;;5074146;28;20111;-76
2021/04/23 03:36:31;;;;;;;14.05;12.55;;;;;;;;;;5073239;28;20020;-75
2021/04/23 03:38:57;;;;;;;12.65;11.18;;;;;;;;;;5074230;28;20029;-76
2021/04/23 03:41:25;;;;;;;13.30;11.88;;;;;;;;;;5073722;28;20078;-75
2021/04/23 03:43:52;;;;;;;13.75;12.35;;;;;;;;;;5073973;28;20025;-76
2021/04/23 03:46:18;;;;;;;13.43;12.13;;;;;;;;;;5073582;28;20020;-76
2021/04/23 03:48:45;;;;;;;13.27;11.48;;;;;;;;;;5073884;28;20035;-75
2021/04/23 03:51:11;;;;;;;11.50;10.40;;;;;;;;;;5073563;28;20025;-76
2021/04/23 03:53:38;;;;;;;13.18;11.63;;;;;;;;;;5073692;28;20034;-76
2021/04/23 03:56:08;;;;;;;12.30;10.20;;;;;;;;;;5073760;28;20344;-75
2021/04/23 03:58:35;;;;;;;12.05;10.85;;;;;;;;;;5073627;28;20021;-76
2021/04/23 04:01:03;;;;;;;12.45;11.15;;;;;;;;;;5073668;28;20035;-75
2021/04/23 04:03:30;;;;;;;11.50;10.30;;;;;;;;;;5073312;28;20041;-75
2021/04/23 04:05:57;;;;;;;11.50;10.18;;;;;;;;;;5073620;28;20029;-78
2021/04/23 04:08:23;;;;;;;12.68;10.77;;;;;;;;;;5073205;28;20024;-76
2021/04/23 04:10:49;;;;;;;12.90;10.57;;;;;;;;;;5073164;28;20059;-76
2021/04/23 04:13:16;;;;;;;12.00;10.70;;;;;;;;;;5072885;28;20036;-76
2021/04/23 04:15:43;;;;;;;12.57;11.27;;;;;;;;;;5055377;28;20470;-75
2021/04/23 04:18:09;;;;;;;10.65;9.57;;;;;;;;;;5072946;28;20545;-76
2021/04/23 04:20:36;;;;;;;10.30;9.30;;;;;;;;;;5073059;28;20108;-76
2021/04/23 04:23:03;;;;;;;10.73;9.63;;;;;;;;;;5073209;28;20027;-76
2021/04/23 04:25:38;;;;;;;11.00;9.45;;;;;;;;;;5072917;28;20020;-76
2021/04/23 04:28:06;;;;;;;9.95;9.05;;;;;;;;;;5072740;28;20025;-78
2021/04/23 04:30:32;;;;;;;10.75;9.65;;;;;;;;;;5072900;28;20033;-77
2021/04/23 04:32:59;;;;;;;11.82;10.45;;;;;;;;;;5072834;28;20571;-76
2021/04/23 04:35:26;;;;;;;12.00;10.15;;;;;;;;;;5054872;28;20446;-76
2021/04/23 04:37:52;;;;;;;14.15;11.40;;;;;;;;;;5072849;28;20074;-75
2021/04/23 04:40:19;;;;;;;11.25;10.15;;;;;;;;;;5054635;28;20391;-76
2021/04/23 04:42:45;;;;;;;11.15;9.52;;;;;;;;;;5072754;28;20055;-76
2021/04/23 04:45:15;;;;;;;10.88;9.77;;;;;;;;;;5072507;28;20070;-76
2021/04/23 04:47:42;;;;;;;10.63;9.52;;;;;;;;;;5072519;28;20048;-76
2021/04/23 04:50:10;;;;;;;9.88;8.88;;;;;;;;;;5072435;28;20029;-76
2021/04/23 04:52:37;;;;;;;10.15;9.25;;;;;;;;;;5072460;28;20036;-76
2021/04/23 04:55:05;;;;;;;11.27;9.52;;;;;;;;;;5072365;28;20032;-76
2021/04/23 04:57:33;;;;;;;11.63;10.45;;;;;;;;;;5072435;28;20384;-76
2021/04/23 04:59:59;;;;;;;12.43;11.13;;;;;;;;;;5072302;28;20115;-76
2021/04/23 05:02:26;;;;;;;10.35;9.30;;;;;;;;;;5072301;28;20506;-76
2021/04/23 05:04:52;;;;;;;12.30;11.00;;;;;;;;;;5072288;28;20028;-76
2021/04/23 05:07:18;;;;;;;11.35;9.75;;;;;;;;;;5072242;28;20021;-77
2021/04/23 05:09:44;;;;;;;10.15;9.05;;;;;;;;;;5050239;28;20403;-77
2021/04/23 05:12:10;;;;;;;10.63;9.57;;;;;;;;;;5062581;28;20040;-76
2021/04/23 05:14:36;;;;;;;9.65;8.75;;;;;;;;;;5071748;28;20028;-75
2021/04/23 05:17:03;;;;;;;10.57;9.02;;;;;;;;;;5072655;28;20028;-77
2021/04/23 05:19:29;;;;;;;10.50;9.40;;;;;;;;;;5055677;28;20029;-75
2021/04/23 05:21:55;;;;;;;10.20;9.18;;;;;;;;;;5073648;28;20033;-75
2021/04/23 05:24:21;;;;;;;10.43;9.10;;;;;;;;;;5073314;28;20466;-76
2021/04/23 05:26:47;;;;;;;9.85;8.85;;;;;;;;;;5073086;28;20025;-76
2021/04/23 05:29:13;;;;;;;10.63;9.15;;;;;;;;;;5072166;28;20077;-77
2021/04/23 05:31:39;;;;;;;12.93;10.43;;;;;;;;;;5072200;28;20040;-76
2021/04/23 05:34:05;;;;;;;11.90;10.70;;;;;;;;;;5073253;28;20044;-78
2021/04/23 05:36:31;;;;;;;10.90;9.77;;;;;;;;;;5070292;28;20115;-77
2021/04/23 05:38:58;;;;;;;11.02;9.80;;;;;;;;;;5072212;28;20414;-79
2021/04/23 05:41:24;;;;;;;11.02;9.93;;;;;;;;;;5071666;28;20071;-78
2021/04/23 05:43:50;;;;;;;11.88;10.65;;;;;;;;;;5071074;28;20043;-78
2021/04/23 05:46:18;;;;;;;10.70;9.63;;;;;;;;;;5071271;28;20487;-79
2021/04/23 05:48:45;;;;;;;11.43;9.15;;;;;;;;;;5052732;28;20163;-76
2021/04/23 05:51:11;;;;;;;10.95;9.18;;;;;;;;;;5070789;28;20025;-80
2021/04/23 05:53:37;;;;;;;13.43;11.30;;;;;;;;;;5070395;28;20037;-78
2021/04/23 05:56:03;;;;;;;12.35;10.95;;;;;;;;;;5070942;28;20056;-77
2021/04/23 05:58:30;;;;;;;13.07;11.13;;;;;;;;;;5070432;28;20075;-78
2021/04/23 06:00:56;;;;;;;14.98;11.90;;;;;;;;;;5073797;28;20107;-78
2021/04/23 06:03:22;;;;;;;14.00;12.55;;;;;;;;;;5075109;28;20025;-77
2021/04/23 06:05:48;;;;;;;12.40;10.50;;;;;;;;;;5074274;28;20025;-79
2021/04/23 06:08:15;;;;;;;10.68;9.07;;;;;;;;;;5074783;28;20032;-77
2021/04/23 06:20:30;;;;;;;9.25;8.07;;;;;;;;;;5060832;28;20075;-79
2021/04/23 06:41:18;;;;;;;11.98;10.73;;;;;;;;;;5073933;28;20541;-78
2021/04/23 07:20:09;;;;;;;6.70;5.55;;;;;;;;;;5070353;28;20086;-78
2021/04/23 07:40:57;;;;;;;5.18;4.65;;;;;;;;;;5072944;28;20035;-76
2021/04/23 08:20:08;;;;;;;4.72;3.85;;;;;;;;;;5069657;28;20174;-78
2021/04/23 08:22:34;;;;;;;8.10;6.72;;;;;;;;;;5071744;28;20028;-77
2021/04/23 08:40:20;;;;;;;6.05;4.70;;;;;;;;;;5070867;28;20054;-75
2021/04/23 09:01:08;;;;;;;2.83;1.92;;;;;;;;;;5071203;28;20099;-79
2021/04/23 09:13:20;;;;;;;3.80;2.38;;;;;;;;;;5070539;28;20093;-81
2021/04/23 09:15:47;;;;;;;2.20;1.33;;;;;;;;;;5071014;28;20073;-79
2021/04/23 09:21:17;;;;;;;4.25;2.28;;;;;;;;;;5065221;28;20427;-81
2021/04/23 10:00:46;;;;;;;2.75;2.30;;;;;;;;;;5070385;28;20641;-80
2021/04/23 10:21:33;;;;;;;3.58;2.90;;;;;;;;;;5067185;28;20059;-81
2021/04/23 11:00:46;;;;;;;3.65;1.60;;;;;;;;;;5073519;28;20090;-76
2021/04/23 11:25:02;;;;;;;3.30;2.40;;;;;;;;;;5052146;28;20340;-77
2021/04/23 11:27:29;;;;;;;;;;;;;;;;;;5055199;28;20021;-78
2021/04/23 11:29:56;;;;;;;1.42;0.88;;;;;;;;;;5072684;28;19954;-78
2021/04/23 11:32:24;;;;;;;3.00;2.10;;;;;;;;;;5072565;28;20110;-78
2021/04/23 11:34:57;;;;;;;4.70;2.70;;;;;;;;;;5072995;28;20059;-76
2021/04/23 11:37:28;;;;;;;1.55;1.02;;;;;;;;;;5072938;28;20039;-79
2021/04/23 11:39:55;;;;;;;2.80;1.10;;;;;;;;;;5072405;28;20036;-78
2021/04/23 11:42:23;;;;;;;3.20;2.17;;;;;;;;;;5052256;28;20468;-78
2021/04/23 11:44:52;;;;;;;1.25;0.70;;;;;;;;;;5072637;28;20031;-78
2021/04/23 11:47:38;;;;;;;1.55;0.80;;;;;;;;;;5072730;28;20025;-78
2021/04/23 11:50:08;;;;;;;2.42;0.80;;;;;;;;;;5054035;28;20028;-78
2021/04/23 11:52:35;;;;;;;3.97;2.00;;;;;;;;;;5072492;28;20052;-78
2021/04/23 11:55:19;;;;;;;2.83;1.67;;;;;;;;;;5072037;28;20559;-74
2021/04/23 11:57:48;;;;;;;0.73;0.55;;;;;;;;;;5069925;28;20076;-78
2021/04/23 12:00:15;;;;;;;3.35;0.93;;;;;;;;;;5071761;28;20047;-78
2021/04/23 12:02:46;;;;;;;1.00;0.70;;;;;;;;;;5072400;28;20107;-80
2021/04/23 12:05:20;;;;;;;1.65;0.93;;;;;;;;;;5070059;28;20024;-80
2021/04/23 12:07:46;;;;;;;;;;;;;;;;;;5072392;28;20028;-79
2021/04/23 12:10:13;;;;;;;1.33;0.60;;;;;;;;;;5071589;28;19911;-80
2021/04/23 12:12:41;;;;;;;1.25;0.85;;;;;;;;;;5072360;28;20064;-76
2021/04/23 12:15:07;;;;;;;1.75;0.88;;;;;;;;;;5071655;28;20036;-77
2021/04/23 12:17:43;;;;;;;0.73;0.50;;;;;;;;;;5072169;28;20458;-78
2021/04/23 12:20:27;;;;;;;2.97;0.50;;;;;;;;;;5071393;28;20033;-76
2021/04/23 12:22:54;;;;;;;3.10;1.20;;;;;;;;;;5071984;28;20045;-78
2021/04/23 12:25:25;;;;;;;3.30;0.70;;;;;;;;;;5071988;28;20045;-77
2021/04/23 12:27:51;;;;;;;1.75;1.35;;;;;;;;;;5071762;28;20032;-79
2021/04/23 12:30:36;;;;;;;7.40;5.30;;;;;;;;;;5071435;28;20055;-79
2021/04/23 12:33:02;;;;;;;6.03;4.07;;;;;;;;;;5070984;28;20037;-79
2021/04/23 12:35:41;;;;;;;2.08;1.08;;;;;;;;;;5071635;28;20472;-79
2021/04/23 12:38:08;;;;;;;3.03;1.58;;;;;;;;;;5070640;28;20040;-78
2021/04/23 12:40:36;;;;;;;5.03;2.15;;;;;;;;;;5071717;28;20103;-80
2021/04/23 12:43:16;;;;;;;1.77;0.90;;;;;;;;;;5071296;28;20391;-81
2021/04/23 12:45:43;;;;;;;2.28;1.02;;;;;;;;;;5069274;28;20025;-79
2021/04/23 12:48:10;;;;;;;1.20;0.82;;;;;;;;;;5069966;28;20032;-79
2021/04/23 12:50:39;;;;;;;2.80;0.63;;;;;;;;;;5070529;28;20025;-78
2021/04/23 12:53:05;;;;;;;4.47;1.98;;;;;;;;;;5071645;28;20032;-78
2021/04/23 12:55:31;;;;;;;1.20;0.70;;;;;;;;;;5071426;28;20035;-78
2021/04/23 13:32:08;;;;;;;7.38;6.15;;;;;;;;;;5032311;28;20056;-79
2021/04/23 13:34:50;;;;;;;7.20;5.85;;;;;;;;;;5032575;28;20045;-80
2021/04/23 13:37:16;;;;;;;8.68;6.32;;;;;;;;;;5032374;28;20025;-79
2021/04/23 13:39:58;;;;;;;8.43;7.60;;;;;;;;;;5032416;28;20523;-78
2021/04/23 13:42:25;;;;;;;10.13;8.27;;;;;;;;;;5031604;28;20037;-82
2021/04/23 13:44:51;;;;;;;10.88;9.77;;;;;;;;;;5032360;28;20030;-80
2021/04/23 13:47:17;;;;;;;12.50;10.02;;;;;;;;;;5032239;28;20056;-80
2021/04/23 13:49:43;;;;;;;15.57;11.95;;;;;;;;;;5032742;28;20064;-80
2021/04/23 13:52:28;;;;;;;15.00;13.20;;;;;;;;;;5047496;28;20040;-78
2021/04/23 13:55:06;;;;;;;14.63;12.57;;;;;;;;;;5032575;28;20030;-77
2021/04/23 13:57:32;;;;;;;15.70;12.70;;;;;;;;;;5032217;28;20034;-80
2021/04/23 13:59:58;;;;;;;19.02;15.40;;;;;;;;;;5032972;28;20037;-78
2021/04/23 14:02:25;;;;;;;22.75;19.05;;;;;;;;;;5032981;28;20025;-80
2021/04/23 14:04:51;;;;;;;20.67;18.48;;;;;;;;;;5033186;28;20029;-79
2021/04/23 14:07:18;;;;;;;18.63;16.70;;;;;;;;;;5032962;28;20112;-78
2021/04/23 14:09:45;;;;;;;24.15;19.13;;;;;;;;;;5033046;28;20030;-78
2021/04/23 14:12:31;;;;;;;21.02;18.65;;;;;;;;;;5033004;28;20088;-77
2021/04/23 14:14:57;;;;;;;18.75;16.65;;;;;;;;;;5033129;28;20353;-79
2021/04/23 14:17:25;;;;;;;18.27;16.38;;;;;;;;;;5033211;28;20026;-78
2021/04/23 14:19:52;;;;;;;23.17;18.15;;;;;;;;;;5034236;28;20473;-80
2021/04/23 14:22:19;;;;;;;18.13;16.40;;;;;;;;;;5036900;28;20448;-81
2021/04/23 14:24:46;;;;;;;19.63;17.27;;;;;;;;;;5037163;28;20025;-79
2021/04/23 14:27:12;;;;;;;19.63;16.92;;;;;;;;;;5036774;28;20026;-77
2021/04/23 14:29:39;;;;;;;19.88;17.88;;;;;;;;;;5040336;28;20077;-77
2021/04/23 14:32:06;;;;;;;18.33;16.05;;;;;;;;;;5076571;28;20029;-80
2021/04/23 14:34:32;;;;;;;19.15;17.05;;;;;;;;;;5072672;28;20047;-79
2021/04/23 14:36:58;;;;;;;18.70;16.08;;;;;;;;;;5076244;28;20467;-79
2021/04/23 14:39:24;;;;;;;20.58;18.38;;;;;;;;;;5076458;28;20028;-81
2021/04/23 14:41:51;;;;;;;19.15;17.15;;;;;;;;;;5076478;28;20047;-78
2021/04/23 14:44:18;;;;;;;17.23;15.43;;;;;;;;;;5076391;28;20024;-79
2021/04/23 14:46:44;;;;;;;19.23;16.20;;;;;;;;;;5058570;28;20029;-78
2021/04/23 14:49:11;;;;;;;16.95;15.18;;;;;;;;;;5076152;28;20158;-77
2021/04/23 14:51:37;;;;;;;15.63;13.98;;;;;;;;;;5076287;28;20052;-78
2021/04/23 14:54:04;;;;;;;15.52;13.93;;;;;;;;;;5076036;28;20052;-78
2021/04/23 14:56:30;;;;;;;17.90;16.00;;;;;;;;;;5076311;28;20103;-77
2021/04/23 14:58:56;;;;;;;18.02;16.13;;;;;;;;;;5075999;28;20085;-77
2021/04/23 15:01:22;;;;;;;22.08;19.70;;;;;;;;;;5076025;28;20472;-77
2021/04/23 15:03:48;;;;;;;16.95;15.25;;;;;;;;;;5076028;28;20060;-77
2021/04/23 15:06:15;;;;;;;17.75;15.95;;;;;;;;;;5075809;28;20123;-77
2021/04/23 15:08:41;;;;;;;17.58;15.60;;;;;;;;;;5075840;28;20353;-77
2021/04/23 15:11:07;;;;;;;15.77;14.18;;;;;;;;;;5075482;28;20027;-77
2021/04/23 15:13:34;;;;;;;16.20;14.48;;;;;;;;;;5075684;28;20494;-77
2021/04/23 15:16:00;;;;;;;14.98;13.43;;;;;;;;;;5075472;28;20483;-76
2021/04/23 15:18:26;;;;;;;16.35;13.95;;;;;;;;;;5075542;28;20122;-77
2021/04/23 15:20:53;;;;;;;19.73;16.00;;;;;;;;;;5075504;28;20467;-77
2021/04/23 15:23:19;;;;;;;18.85;15.90;;;;;;;;;;5075118;28;20021;-76
2021/04/23 15:25:46;;;;;;;19.98;16.77;;;;;;;;;;5074973;28;20475;-76
2021/04/23 15:28:13;;;;;;;14.70;12.88;;;;;;;;;;5074564;28;20377;-77
2021/04/23 15:30:40;;;;;;;18.88;16.88;;;;;;;;;;5056095;28;20131;-77
2021/04/23 15:33:08;;;;;;;17.02;15.25;;;;;;;;;;5073773;28;20063;-77
2021/04/23 15:35:35;;;;;;;20.52;18.38;;;;;;;;;;5057116;28;20036;-76
2021/04/23 15:38:01;;;;;;;18.73;16.83;;;;;;;;;;5056865;28;20091;-77
2021/04/23 15:40:28;;;;;;;18.75;16.85;;;;;;;;;;5075049;28;20029;-77
2021/04/23 15:42:54;;;;;;;17.88;15.98;;;;;;;;;;5074419;28;20024;-77
2021/04/23 15:45:28;;;;;;;13.10;11.75;;;;;;;;;;5074389;28;20467;-76
2021/04/23 15:47:56;;;;;;;12.82;10.52;;;;;;;;;;5039660;28;20047;-76
2021/04/23 15:50:24;;;;;;;12.85;11.60;;;;;;;;;;5056162;28;20033;-74
2021/04/23 15:52:50;;;;;;;12.02;10.77;;;;;;;;;;5073502;28;20033;-78
2021/04/23 15:55:17;;;;;;;16.98;10.30;;;;;;;;;;5073488;28;20116;-78
2021/04/23 15:57:44;;;;;;;12.20;10.90;;;;;;;;;;5073161;28;20392;-78
2021/04/23 16:00:12;;;;;;;12.27;11.07;;;;;;;;;;5056264;28;20082;-76
2021/04/23 16:02:38;;;;;;;12.60;11.13;;;;;;;;;;5055919;28;20029;-77
2021/04/23 16:05:05;;;;;;;14.38;12.98;;;;;;;;;;5052989;28;20025;-77
2021/04/23 16:07:32;;;;;;;15.07;13.32;;;;;;;;;;5073416;28;20460;-78
2021/04/23 16:09:58;;;;;;;16.08;12.18;;;;;;;;;;5073897;28;20085;-78
2021/04/23 16:12:24;;;;;;;13.65;11.82;;;;;;;;;;5071473;28;20028;-77
2021/04/23 16:14:50;;;;;;;14.07;12.45;;;;;;;;;;5053847;28;20032;-76
2021/04/23 16:17:19;;;;;;;14.45;12.95;;;;;;;;;;5073910;28;20024;-78
2021/04/23 16:19:47;;;;;;;14.52;12.23;;;;;;;;;;5074056;28;20047;-77
2021/04/23 16:22:13;;;;;;;14.98;13.48;;;;;;;;;;5074552;28;20027;-77
2021/04/23 16:24:39;;;;;;;15.65;14.07;;;;;;;;;;5074385;28;20032;-76
2021/04/23 16:27:05;;;;;;;19.73;15.43;;;;;;;;;;5074138;28;20083;-76
2021/04/23 16:29:31;;;;;;;16.88;15.18;;;;;;;;;;5073875;28;20419;-79
2021/04/23 16:31:58;;;;;;;16.83;13.57;;;;;;;;;;5073240;28;20115;-76
2021/04/23 16:34:24;;;;;;;17.83;15.10;;;;;;;;;;5062430;28;20047;-75
2021/04/23 16:36:50;;;;;;;16.15;14.35;;;;;;;;;;5068805;28;20024;-76
2021/04/23 16:39:16;;;;;;;18.90;15.98;;;;;;;;;;5072326;28;20098;-77
2021/04/23 16:41:42;;;;;;;17.13;15.25;;;;;;;;;;5072594;28;20021;-77
2021/04/23 16:44:09;;;;;;;18.25;16.35;;;;;;;;;;5054893;28;20067;-76
2021/04/23 16:46:35;;;;;;;16.55;14.85;;;;;;;;;;5072939;28;20472;-77
2021/04/23 16:49:02;;;;;;;19.55;15.95;;;;;;;;;;5072838;28;20043;-78
2021/04/23 16:51:28;;;;;;;16.13;13.75;;;;;;;;;;5073164;28;20051;-77
2021/04/23 16:53:54;;;;;;;17.90;15.50;;;;;;;;;;5072613;28;20037;-77
2021/04/23 16:56:20;;;;;;;20.30;17.88;;;;;;;;;;5073031;28;20088;-77
2021/04/23 16:58:46;;;;;;;19.33;17.08;;;;;;;;;;5072403;28;20032;-77
2021/04/23 17:01:12;;;;;;;20.65;16.88;;;;;;;;;;5072553;28;20033;-77
2021/04/23 17:03:39;;;;;;;18.70;16.17;;;;;;;;;;5072762;28;20490;-77
2021/04/23 17:06:05;;;;;;;19.83;17.77;;;;;;;;;;5072567;28;20036;-78
2021/04/23 17:08:32;;;;;;;23.30;17.77;;;;;;;;;;5072817;28;20431;-78
2021/04/23 17:10:58;;;;;;;18.38;16.50;;;;;;;;;;5072367;28;20037;-77
2021/04/23 17:13:24;;;;;;;18.80;16.77;;;;;;;;;;5072630;28;20392;-77
2021/04/23 17:15:50;;;;;;;22.38;17.42;;;;;;;;;;5072422;28;20028;-78
2021/04/23 17:18:17;;;;;;;24.67;18.33;;;;;;;;;;5072671;28;20028;-77
2021/04/23 17:20:43;;;;;;;21.90;19.55;;;;;;;;;;5072318;28;20471;-78
2021/04/23 17:23:09;;;;;;;27.83;20.10;;;;;;;;;;5072397;28;20485;-78
2021/04/23 17:25:35;;;;;;;27.90;21.38;;;;;;;;;;5072772;28;20090;-77
2021/04/23 17:28:01;;;;;;;26.25;22.40;;;;;;;;;;5072694;28;20024;-78
2021/04/23 17:30:28;;;;;;;24.75;20.50;;;;;;;;;;5072919;28;20040;-78
2021/04/23 17:32:54;;;;;;;28.52;22.35;;;;;;;;;;5073163;28;20033;-78
2021/04/23 17:35:20;;;;;;;24.63;20.30;;;;;;;;;;5073456;28;20498;-78
2021/04/23 17:37:46;;;;;;;24.58;19.20;;;;;;;;;;5073556;28;20029;-78
2021/04/23 17:40:13;;;;;;;22.58;20.02;;;;;;;;;;5073547;28;20464;-77
2021/04/23 17:42:43;;;;;;;24.10;20.65;;;;;;;;;;5073214;28;20491;-78
2021/04/23 17:45:11;;;;;;;24.67;20.60;;;;;;;;;;5055343;28;20035;-78
2021/04/23 17:47:38;;;;;;;20.40;17.75;;;;;;;;;;5038880;28;20042;-77
2021/04/23 17:50:09;;;;;;;30.92;21.35;;;;;;;;;;5073043;28;20048;-78
2021/04/23 17:52:36;;;;;;;24.98;20.50;;;;;;;;;;5073375;28;20035;-77
2021/04/23 17:55:03;;;;;;;25.30;20.27;;;;;;;;;;5074624;28;20039;-77
2021/04/23 17:57:29;;;;;;;25.52;20.92;;;;;;;;;;5077437;28;20095;-78
2021/04/23 17:59:55;;;;;;;25.88;20.77;;;;;;;;;;5077235;28;20055;-78
2021/04/23 18:02:22;;;;;;;26.02;20.02;;;;;;;;;;5077427;28;20444;-77
2021/04/23 18:04:48;;;;;;;21.58;19.33;;;;;;;;;;5076981;28;20545;-78
2021/04/23 18:07:14;;;;;;;23.80;20.08;;;;;;;;;;5077484;28;20025;-78
2021/04/23 18:09:40;;;;;;;23.05;20.63;;;;;;;;;;5075988;28;20024;-77
2021/04/23 18:12:06;;;;;;;22.60;20.08;;;;;;;;;;5075997;28;20071;-78
2021/04/23 18:14:35;;;;;;;21.90;19.48;;;;;;;;;;5076397;28;20037;-78
2021/04/23 18:17:02;;;;;;;21.33;19.05;;;;;;;;;;5076426;28;20085;-78
2021/04/23 18:19:28;;;;;;;21.92;18.42;;;;;;;;;;5076927;28;20017;-78
2021/04/23 18:21:54;;;;;;;20.88;18.55;;;;;;;;;;5076893;28;20028;-78
2021/04/23 18:24:20;;;;;;;22.25;19.27;;;;;;;;;;5076896;28;20040;-77
2021/04/23 18:27:05;;;;;;;20.58;18.38;;;;;;;;;;5076801;28;20028;-77
2021/04/23 18:29:32;;;;;;;24.58;20.70;;;;;;;;;;5041396;28;20040;-77
2021/04/23 18:31:58;;;;;;;25.17;22.48;;;;;;;;;;5076685;28;20041;-77
2021/04/23 18:34:24;;;;;;;28.52;25.52;;;;;;;;;;5076834;28;20496;-76
2021/04/23 18:36:51;;;;;;;31.48;26.45;;;;;;;;;;5076659;28;20364;-77
2021/04/23 18:39:17;;;;;;;39.38;33.83;;;;;;;;;;5076874;28;20036;-77
2021/04/23 18:41:44;;;;;;;63.58;54.00;;;;;;;;;;5076762;28;20032;-78
2021/04/23 18:44:11;;;;;;;69.82;58.58;;;;;;;;;;5076624;28;20491;-79
2021/04/23 18:46:38;;;;;;;47.35;39.90;;;;;;;;;;5076543;28;20510;-76
2021/04/23 18:49:04;;;;;;;58.67;51.63;;;;;;;;;;5076504;28;20025;-77
2021/04/23 18:51:31;;;;;;;74.55;61.72;;;;;;;;;;5076531;28;20024;-77
2021/04/23 18:53:57;;;;;;;87.50;67.30;;;;;;;;;;5076044;28;20392;-76
2021/04/23 18:56:23;;;;;;;88.70;68.72;;;;;;;;;;5076335;28;20518;-77
2021/04/23 18:58:50;;;;;;;57.00;47.03;;;;;;;;;;5076147;28;20025;-74
2021/04/23 19:01:16;;;;;;;31.02;25.88;;;;;;;;;;5076325;28;20375;-77
2021/04/23 19:03:45;;;;;;;33.55;29.98;;;;;;;;;;5076183;28;20032;-78
2021/04/23 19:06:11;;;;;;;30.02;25.13;;;;;;;;;;5076113;28;20131;-78
2021/04/23 19:08:37;;;;;;;33.72;28.63;;;;;;;;;;5075889;28;20025;-75
2021/04/23 19:11:04;;;;;;;39.17;32.47;;;;;;;;;;5076092;28;20027;-76
2021/04/23 19:13:30;;;;;;;36.53;29.52;;;;;;;;;;5075838;28;20383;-76
2021/04/23 19:15:56;;;;;;;32.85;26.23;;;;;;;;;;5075864;28;20095;-76
2021/04/23 19:18:22;;;;;;;25.90;22.45;;;;;;;;;;5075896;28;20076;-78
2021/04/23 19:20:48;;;;;;;25.88;22.42;;;;;;;;;;5075716;28;20024;-78
2021/04/23 19:23:15;;;;;;;26.48;23.67;;;;;;;;;;5075862;28;20029;-78
2021/04/23 19:25:41;;;;;;;26.23;21.60;;;;;;;;;;5075715;28;20073;-79
2021/04/23 19:28:07;;;;;;;25.10;21.88;;;;;;;;;;5075643;28;20024;-78
2021/04/23 19:30:33;;;;;;;24.73;21.88;;;;;;;;;;5075431;28;20053;-78
2021/04/23 19:32:59;;;;;;;23.80;19.08;;;;;;;;;;5057555;28;20037;-78
2021/04/23 19:35:26;;;;;;;22.08;19.73;;;;;;;;;;5075884;28;20074;-79
2021/04/23 19:37:52;;;;;;;21.20;18.95;;;;;;;;;;5075605;28;20025;-78
2021/04/23 19:40:19;;;;;;;20.73;18.35;;;;;;;;;;5075489;28;20115;-75
2021/04/23 19:42:46;;;;;;;22.40;20.00;;;;;;;;;;5075235;28;20028;-77